Time;durP1;ratioP1;P1;durP2;ratioP2;P2;SDS_P1;SDS_P2;PMS_P1;PMS_P2;Temp;Humidity;BMP_temperature;BMP_pressure;BME280_temperature;BME280_humidity;BME280_pressure;Samples;Min_cycle;Max_cycle;Signal;HPM_P1;HPM_P2
2022/04/20 00:01:03;;;;;;;16.55;13.23;;;;;;;;;;4977192;28;20110;-60
2022/04/20 00:03:29;;;;;;;14.75;11.68;;;;;;;;;;4977053;28;20038;-60
2022/04/20 00:05:55;;;;;;;16.40;12.63;;;;;;;;;;4959482;28;20384;-60
2022/04/20 00:08:22;;;;;;;17.67;12.48;;;;;;;;;;4976727;28;20105;-62
2022/04/20 00:10:48;;;;;;;15.18;12.40;;;;;;;;;;4976762;28;20023;-60
2022/04/20 00:13:14;;;;;;;15.68;13.32;;;;;;;;;;4976896;28;20049;-62
2022/04/20 00:15:40;;;;;;;21.45;13.20;;;;;;;;;;4959175;28;20049;-60
2022/04/20 00:18:07;;;;;;;16.65;13.98;;;;;;;;;;4976568;28;20029;-60
2022/04/20 00:20:33;;;;;;;21.40;16.50;;;;;;;;;;4976563;28;20037;-62
2022/04/20 00:22:59;;;;;;;17.77;15.48;;;;;;;;;;4959016;28;20031;-60
2022/04/20 00:25:26;;;;;;;23.77;17.25;;;;;;;;;;4976448;28;20037;-60
2022/04/20 00:27:52;;;;;;;22.98;16.92;;;;;;;;;;4958928;28;20463;-60
2022/04/20 00:30:18;;;;;;;27.52;18.92;;;;;;;;;;4976222;28;20113;-62
2022/04/20 00:32:45;;;;;;;24.77;18.90;;;;;;;;;;4958875;28;20030;-60
2022/04/20 00:35:11;;;;;;;23.20;17.85;;;;;;;;;;4958861;28;20030;-60
2022/04/20 00:37:37;;;;;;;23.23;17.70;;;;;;;;;;4958818;28;20035;-60
2022/04/20 00:40:04;;;;;;;21.65;17.42;;;;;;;;;;4976138;28;20081;-61
2022/04/20 00:42:32;;;;;;;22.25;17.42;;;;;;;;;;4976170;28;20038;-60
2022/04/20 00:44:58;;;;;;;24.95;18.98;;;;;;;;;;4975795;28;20038;-61
2022/04/20 00:47:25;;;;;;;22.85;17.38;;;;;;;;;;4975978;28;20029;-61
2022/04/20 00:49:54;;;;;;;22.20;17.77;;;;;;;;;;4975958;28;20042;-61
2022/04/20 00:52:20;;;;;;;23.58;17.80;;;;;;;;;;4975996;28;20030;-61
2022/04/20 00:54:46;;;;;;;22.70;17.63;;;;;;;;;;4975782;28;20031;-61
2022/04/20 00:57:14;;;;;;;22.15;16.35;;;;;;;;;;4975831;28;20035;-61
2022/04/20 00:59:41;;;;;;;26.15;17.75;;;;;;;;;;4975834;28;20118;-62
2022/04/20 01:02:07;;;;;;;23.27;17.80;;;;;;;;;;4975549;28;20031;-61
2022/04/20 01:04:34;;;;;;;23.13;18.20;;;;;;;;;;4958241;28;20077;-61
2022/04/20 01:07:01;;;;;;;20.58;16.55;;;;;;;;;;4975226;28;20031;-61
2022/04/20 01:09:27;;;;;;;20.35;16.35;;;;;;;;;;4975723;28;20105;-61
2022/04/20 01:11:55;;;;;;;20.10;15.95;;;;;;;;;;4975575;28;20023;-61
2022/04/20 01:14:22;;;;;;;24.42;18.77;;;;;;;;;;4975475;28;20070;-62
2022/04/20 01:16:48;;;;;;;20.05;17.48;;;;;;;;;;4958053;28;20387;-63
2022/04/20 01:19:14;;;;;;;22.83;17.90;;;;;;;;;;4958007;28;20389;-62
2022/04/20 01:21:41;;;;;;;20.75;16.27;;;;;;;;;;4957993;28;20049;-63
2022/04/20 01:24:07;;;;;;;22.50;16.35;;;;;;;;;;4957946;28;20033;-62
2022/04/20 01:26:33;;;;;;;19.40;15.73;;;;;;;;;;4975504;28;20089;-62
2022/04/20 01:29:02;;;;;;;22.90;17.50;;;;;;;;;;4957871;28;20113;-63
2022/04/20 01:31:30;;;;;;;22.95;17.50;;;;;;;;;;4974870;28;20050;-62
2022/04/20 01:33:58;;;;;;;19.65;17.38;;;;;;;;;;4975047;28;20117;-62
2022/04/20 01:36:24;;;;;;;26.02;19.58;;;;;;;;;;4975123;28;20086;-63
2022/04/20 01:38:50;;;;;;;25.73;19.77;;;;;;;;;;4974800;28;20082;-61
2022/04/20 01:41:17;;;;;;;25.75;19.92;;;;;;;;;;4975106;28;20062;-61
2022/04/20 01:43:43;;;;;;;29.25;21.35;;;;;;;;;;4975033;28;20035;-61
2022/04/20 01:46:09;;;;;;;25.85;20.33;;;;;;;;;;4974669;28;20085;-61
2022/04/20 01:48:35;;;;;;;26.00;20.70;;;;;;;;;;4974899;28;20094;-61
2022/04/20 01:53:46;;;;;;;27.25;20.40;;;;;;;;;;4974766;28;20098;-61
2022/04/20 01:56:13;;;;;;;25.10;19.75;;;;;;;;;;4974786;28;20101;-62
2022/04/20 01:58:39;;;;;;;25.83;20.33;;;;;;;;;;4974713;28;20034;-62
2022/04/20 02:02:34;;;;;;;28.80;21.25;;;;;;;;;;4974701;28;20030;-62
2022/04/20 02:03:51;;;;;;;26.52;20.52;;;;;;;;;;4974297;28;20050;-62
2022/04/20 02:06:17;;;;;;;28.75;20.70;;;;;;;;;;4974562;28;20027;-62
2022/04/20 02:08:44;;;;;;;26.50;19.48;;;;;;;;;;4974281;28;20037;-62
2022/04/20 02:11:10;;;;;;;24.80;19.75;;;;;;;;;;4957307;28;20468;-62
2022/04/20 02:13:36;;;;;;;28.42;19.95;;;;;;;;;;4974475;28;20034;-62
2022/04/20 02:16:03;;;;;;;23.35;19.00;;;;;;;;;;4974408;28;20043;-62
2022/04/20 02:18:29;;;;;;;26.42;19.63;;;;;;;;;;4974393;28;20031;-62
2022/04/20 02:20:55;;;;;;;23.40;18.90;;;;;;;;;;4956408;28;20035;-62
2022/04/20 02:23:21;;;;;;;23.85;18.70;;;;;;;;;;4974663;28;20113;-62
2022/04/20 02:25:47;;;;;;;26.50;19.42;;;;;;;;;;4956963;28;20058;-62
2022/04/20 02:28:13;;;;;;;25.40;19.85;;;;;;;;;;4974326;28;20466;-62
2022/04/20 02:30:40;;;;;;;27.33;20.05;;;;;;;;;;4974105;28;20494;-62
2022/04/20 02:33:06;;;;;;;27.67;20.80;;;;;;;;;;4974091;28;20034;-62
2022/04/20 02:35:32;;;;;;;28.05;21.30;;;;;;;;;;4956810;28;20039;-62
2022/04/20 02:37:59;;;;;;;29.85;22.30;;;;;;;;;;4974224;28;20059;-62
2022/04/20 02:40:26;;;;;;;32.67;23.02;;;;;;;;;;4974222;28;20030;-62
2022/04/20 02:42:52;;;;;;;37.70;22.40;;;;;;;;;;4974206;28;20027;-61
2022/04/20 02:45:19;;;;;;;30.73;20.13;;;;;;;;;;4956829;28;20117;-61
2022/04/20 02:47:45;;;;;;;27.63;21.92;;;;;;;;;;4956802;28;20460;-62
2022/04/20 02:50:12;;;;;;;31.65;22.38;;;;;;;;;;4956765;28;20041;-61
2022/04/20 02:52:38;;;;;;;30.75;23.27;;;;;;;;;;4974418;28;20106;-61
2022/04/20 02:55:04;;;;;;;34.97;24.13;;;;;;;;;;4956625;28;20117;-61
2022/04/20 02:57:30;;;;;;;32.25;24.42;;;;;;;;;;4974035;28;20042;-62
2022/04/20 02:59:56;;;;;;;29.98;23.70;;;;;;;;;;4974057;28;20041;-62
2022/04/20 03:02:23;;;;;;;28.92;22.10;;;;;;;;;;4974059;28;20041;-62
2022/04/20 03:04:49;;;;;;;27.88;20.98;;;;;;;;;;4956662;28;20464;-61
2022/04/20 03:07:15;;;;;;;28.75;21.98;;;;;;;;;;4974234;28;20026;-61
2022/04/20 03:09:41;;;;;;;30.08;21.70;;;;;;;;;;4973944;28;20420;-61
2022/04/20 03:12:08;;;;;;;30.67;22.10;;;;;;;;;;4974007;28;20468;-61
2022/04/20 03:14:34;;;;;;;30.25;21.00;;;;;;;;;;4973869;28;20386;-61
2022/04/20 03:17:00;;;;;;;28.20;22.10;;;;;;;;;;4973917;28;20038;-61
2022/04/20 03:19:26;;;;;;;30.50;22.17;;;;;;;;;;4973858;28;20376;-61
2022/04/20 03:21:53;;;;;;;30.10;23.08;;;;;;;;;;4974163;28;20037;-61
2022/04/20 03:24:19;;;;;;;29.90;21.10;;;;;;;;;;4973853;28;20070;-61
2022/04/20 03:26:45;;;;;;;30.63;21.90;;;;;;;;;;4956426;28;20557;-61
2022/04/20 03:29:12;;;;;;;32.63;21.67;;;;;;;;;;4974037;28;20042;-62
2022/04/20 03:31:38;;;;;;;31.35;21.92;;;;;;;;;;4975572;28;20043;-62
2022/04/20 03:34:04;;;;;;;26.73;22.48;;;;;;;;;;4977602;28;20031;-62
2022/04/20 03:36:31;;;;;;;30.42;22.55;;;;;;;;;;4977585;28;20161;-62
2022/04/20 03:38:57;;;;;;;26.75;21.85;;;;;;;;;;4976951;28;20158;-62
2022/04/20 03:41:23;;;;;;;27.08;21.90;;;;;;;;;;4977233;28;20069;-61
2022/04/20 03:43:50;;;;;;;28.83;22.48;;;;;;;;;;4977237;28;20029;-62
2022/04/20 03:46:16;;;;;;;29.23;23.08;;;;;;;;;;4977143;28;20109;-62
2022/04/20 03:48:43;;;;;;;29.33;23.95;;;;;;;;;;4977096;28;20498;-62
2022/04/20 03:51:09;;;;;;;29.02;24.00;;;;;;;;;;4977069;28;20023;-63
2022/04/20 03:53:35;;;;;;;33.40;23.77;;;;;;;;;;4977052;28;20474;-62
2022/04/20 03:56:01;;;;;;;31.25;23.95;;;;;;;;;;4959507;28;20198;-62
2022/04/20 03:58:28;;;;;;;30.95;23.83;;;;;;;;;;4976857;28;20031;-62
2022/04/20 04:00:54;;;;;;;29.92;21.95;;;;;;;;;;4976593;28;20033;-62
2022/04/20 04:03:20;;;;;;;23.50;18.55;;;;;;;;;;4976909;28;20034;-62
2022/04/20 04:05:46;;;;;;;25.23;19.02;;;;;;;;;;4976522;28;20062;-62
2022/04/20 04:08:13;;;;;;;20.75;17.10;;;;;;;;;;4959342;28;20035;-62
2022/04/20 04:10:40;;;;;;;20.40;16.45;;;;;;;;;;4976711;28;20027;-62
2022/04/20 04:13:06;;;;;;;18.20;14.27;;;;;;;;;;4976724;28;20031;-62
2022/04/20 04:15:33;;;;;;;14.10;11.65;;;;;;;;;;4976498;28;20383;-61
2022/04/20 04:18:00;;;;;;;12.30;10.07;;;;;;;;;;4959192;28;20482;-62
2022/04/20 04:20:26;;;;;;;13.55;11.65;;;;;;;;;;4976459;28;20527;-62
2022/04/20 04:22:53;;;;;;;18.00;14.07;;;;;;;;;;4976549;28;20042;-62
2022/04/20 04:25:19;;;;;;;18.70;15.45;;;;;;;;;;4976454;28;20058;-61
2022/04/20 04:27:46;;;;;;;15.88;13.05;;;;;;;;;;4976394;28;20019;-61
2022/04/20 04:30:12;;;;;;;15.35;11.57;;;;;;;;;;4976602;28;20030;-61
2022/04/20 04:32:38;;;;;;;15.05;11.80;;;;;;;;;;4975928;28;20554;-62
2022/04/20 04:35:05;;;;;;;16.83;11.30;;;;;;;;;;4976376;28;20035;-62
2022/04/20 04:37:33;;;;;;;12.07;10.35;;;;;;;;;;4976227;28;20039;-61
2022/04/20 04:39:59;;;;;;;12.73;11.30;;;;;;;;;;4976216;28;20121;-62
2022/04/20 04:42:26;;;;;;;16.13;11.13;;;;;;;;;;4975333;28;20031;-62
2022/04/20 04:44:52;;;;;;;14.68;11.45;;;;;;;;;;4958790;28;20491;-61
2022/04/20 04:50:03;;;;;;;15.55;11.63;;;;;;;;;;4975816;28;20041;-61
2022/04/20 04:52:30;;;;;;;17.98;13.23;;;;;;;;;;4958584;28;20503;-61
2022/04/20 04:54:56;;;;;;;15.65;11.68;;;;;;;;;;4958478;28;20043;-62
2022/04/20 04:57:22;;;;;;;11.98;10.38;;;;;;;;;;4976077;28;20030;-62
2022/04/20 04:59:48;;;;;;;12.15;10.75;;;;;;;;;;4975691;28;20073;-62
2022/04/20 05:02:14;;;;;;;17.23;12.00;;;;;;;;;;4975779;28;20054;-62
2022/04/20 05:04:41;;;;;;;15.48;12.85;;;;;;;;;;4975679;28;20027;-62
2022/04/20 05:07:07;;;;;;;14.25;12.48;;;;;;;;;;4975672;28;20035;-62
2022/04/20 05:09:34;;;;;;;18.27;13.40;;;;;;;;;;4975659;28;20031;-62
2022/04/20 05:12:01;;;;;;;21.80;15.85;;;;;;;;;;4958117;28;20162;-62
2022/04/20 05:14:27;;;;;;;23.20;16.75;;;;;;;;;;4958104;28;20498;-62
2022/04/20 05:16:55;;;;;;;21.38;15.93;;;;;;;;;;4958073;28;20086;-61
2022/04/20 05:19:21;;;;;;;20.42;14.77;;;;;;;;;;4975380;28;20419;-62
2022/04/20 05:21:48;;;;;;;17.13;11.77;;;;;;;;;;4975318;28;20031;-61
2022/04/20 05:24:14;;;;;;;18.08;13.10;;;;;;;;;;4975562;28;20031;-62
2022/04/20 05:26:40;;;;;;;16.27;12.65;;;;;;;;;;4975266;28;20073;-61
2022/04/20 05:29:07;;;;;;;21.83;15.30;;;;;;;;;;4975198;28;20093;-62
2022/04/20 05:31:33;;;;;;;19.48;14.75;;;;;;;;;;4957397;28;20055;-62
2022/04/20 05:34:00;;;;;;;18.45;14.02;;;;;;;;;;4975251;28;20094;-61
2022/04/20 05:41:39;;;;;;;38.55;21.33;;;;;;;;;;4975035;28;20038;-61
2022/04/20 05:41:57;;;;;;;30.27;17.60;;;;;;;;;;4975041;28;20049;-63
2022/04/20 05:44:23;;;;;;;14.45;9.50;;;;;;;;;;4974890;28;20096;-62
2022/04/20 05:46:50;;;;;;;14.73;10.10;;;;;;;;;;4974906;28;20027;-61
2022/04/20 05:49:16;;;;;;;14.80;10.18;;;;;;;;;;4974642;28;20033;-61
2022/04/20 05:51:42;;;;;;;12.27;9.40;;;;;;;;;;4957358;28;20452;-61
2022/04/20 05:54:09;;;;;;;23.73;14.82;;;;;;;;;;4974388;28;20038;-61
2022/04/20 05:56:35;;;;;;;117.32;54.15;;;;;;;;;;4974623;28;20090;-62
2022/04/20 05:59:01;;;;;;;131.65;56.28;;;;;;;;;;4974918;28;20029;-62
2022/04/20 06:01:27;;;;;;;13.43;9.73;;;;;;;;;;4974953;28;20446;-62
2022/04/20 06:03:53;;;;;;;13.77;9.52;;;;;;;;;;4974644;28;20030;-62
2022/04/20 06:06:19;;;;;;;11.20;9.48;;;;;;;;;;4974352;28;20376;-64
2022/04/20 06:08:47;;;;;;;11.15;8.90;;;;;;;;;;4957060;28;20031;-64
2022/04/20 06:11:13;;;;;;;11.40;10.18;;;;;;;;;;4974547;28;20027;-64
2022/04/20 06:13:39;;;;;;;12.57;9.60;;;;;;;;;;4956943;28;20457;-64
2022/04/20 06:16:06;;;;;;;13.85;9.73;;;;;;;;;;4974602;28;20035;-62
2022/04/20 06:18:33;;;;;;;12.30;9.50;;;;;;;;;;4974427;28;20035;-62
2022/04/20 06:20:59;;;;;;;11.43;10.15;;;;;;;;;;4974371;28;20483;-62
2022/04/20 06:23:25;;;;;;;12.82;9.95;;;;;;;;;;4974452;28;20027;-62
2022/04/20 06:25:55;;;;;;;17.13;12.93;;;;;;;;;;4974046;28;20451;-62
2022/04/20 06:28:24;;;;;;;28.98;23.13;;;;;;;;;;4974086;28;20027;-62
2022/04/20 06:30:50;;;;;;;13.30;10.23;;;;;;;;;;4974008;28;20488;-62
2022/04/20 06:33:16;;;;;;;20.15;13.93;;;;;;;;;;4974184;28;20090;-63
2022/04/20 06:35:43;;;;;;;9.30;7.40;;;;;;;;;;4974207;28;20043;-63
2022/04/20 06:38:09;;;;;;;10.65;8.45;;;;;;;;;;4974408;28;20045;-63
2022/04/20 06:40:35;;;;;;;15.40;11.30;;;;;;;;;;4974385;28;20023;-66
2022/04/20 06:43:01;;;;;;;13.93;10.15;;;;;;;;;;4974203;28;20031;-64
2022/04/20 06:45:27;;;;;;;10.35;7.15;;;;;;;;;;4974407;28;20031;-64
2022/04/20 06:47:58;;;;;;;14.15;9.40;;;;;;;;;;4974390;28;20040;-65
2022/04/20 06:50:24;;;;;;;9.18;6.13;;;;;;;;;;4974132;28;20034;-64
2022/04/20 06:58:32;;;;;;;12.10;8.52;;;;;;;;;;4973635;28;20159;-62
2022/04/20 07:00:59;;;;;;;10.68;9.10;;;;;;;;;;4974060;28;20031;-62
2022/04/20 07:03:25;;;;;;;15.75;9.80;;;;;;;;;;4974039;28;20023;-62
2022/04/20 07:05:52;;;;;;;11.57;9.05;;;;;;;;;;4975010;28;20019;-62
2022/04/20 07:08:19;;;;;;;15.70;10.05;;;;;;;;;;4977814;28;20027;-62
2022/04/20 07:10:47;;;;;;;10.80;8.63;;;;;;;;;;4960625;28;20380;-62
2022/04/20 07:13:13;;;;;;;10.23;8.52;;;;;;;;;;4960252;28;20423;-62
2022/04/20 07:15:39;;;;;;;13.48;9.88;;;;;;;;;;4977707;28;20053;-62
2022/04/20 07:18:06;;;;;;;13.05;9.48;;;;;;;;;;4977642;28;20169;-63
2022/04/20 07:20:32;;;;;;;18.10;10.95;;;;;;;;;;4977547;28;20027;-63
2022/04/20 07:22:58;;;;;;;14.73;11.45;;;;;;;;;;4977544;28;20085;-65
2022/04/20 07:25:25;;;;;;;14.95;11.73;;;;;;;;;;4977539;28;20039;-62
2022/04/20 07:27:51;;;;;;;13.25;11.32;;;;;;;;;;4960067;28;20030;-64
2022/04/20 07:30:18;;;;;;;14.60;11.68;;;;;;;;;;4977411;28;20026;-62
2022/04/20 07:32:44;;;;;;;16.73;12.88;;;;;;;;;;4976953;28;20491;-62
2022/04/20 07:35:11;;;;;;;13.30;11.88;;;;;;;;;;4974484;28;20045;-62
2022/04/20 07:37:37;;;;;;;15.32;12.18;;;;;;;;;;4958656;28;20039;-62
2022/04/20 07:40:03;;;;;;;41.47;19.92;;;;;;;;;;4959443;28;20118;-65
2022/04/20 07:42:29;;;;;;;28.58;16.90;;;;;;;;;;4958039;29;20028;-66
2022/04/20 07:44:56;;;;;;;22.63;15.63;;;;;;;;;;4957950;29;20038;-65
2022/04/20 07:47:28;;;;;;;16.83;11.48;;;;;;;;;;4960503;28;20039;-72
2022/04/20 07:52:45;;;;;;;33.38;20.15;;;;;;;;;;4957656;29;20388;-64
2022/04/20 07:55:15;;;;;;;27.73;16.27;;;;;;;;;;4940109;28;20118;-65
2022/04/20 07:57:44;;;;;;;32.72;20.13;;;;;;;;;;4957796;28;20065;-65
2022/04/20 08:00:11;;;;;;;18.15;12.90;;;;;;;;;;4976742;28;20153;-64
2022/04/20 08:02:38;;;;;;;14.73;10.60;;;;;;;;;;4976735;28;20027;-62
2022/04/20 08:05:04;;;;;;;16.98;13.20;;;;;;;;;;4976650;28;20538;-63
2022/04/20 08:07:30;;;;;;;29.80;20.05;;;;;;;;;;4976612;28;20031;-64
2022/04/20 08:09:56;;;;;;;18.90;13.73;;;;;;;;;;4969709;28;20035;-67
2022/04/20 08:12:24;;;;;;;14.75;10.85;;;;;;;;;;4966423;28;20023;-65
2022/04/20 08:14:51;;;;;;;13.63;10.60;;;;;;;;;;4965668;28;20162;-64
2022/04/20 08:17:18;;;;;;;15.55;13.23;;;;;;;;;;4956336;28;20476;-64
2022/04/20 08:19:44;;;;;;;32.28;19.73;;;;;;;;;;4957079;29;20027;-65
2022/04/20 08:22:10;;;;;;;13.23;10.70;;;;;;;;;;4957105;29;20480;-64
2022/04/20 08:24:36;;;;;;;13.52;12.13;;;;;;;;;;4957053;29;20062;-66
2022/04/20 08:27:02;;;;;;;10.00;8.95;;;;;;;;;;4956116;29;20380;-65
2022/04/20 08:29:28;;;;;;;7.43;6.70;;;;;;;;;;4938090;29;20163;-68
2022/04/20 08:31:55;;;;;;;6.97;4.78;;;;;;;;;;4950405;28;20046;-63
2022/04/20 08:34:21;;;;;;;6.80;6.10;;;;;;;;;;4984279;28;20050;-62
2022/04/20 08:36:47;;;;;;;6.35;4.93;;;;;;;;;;4963375;28;20031;-63
2022/04/20 08:39:13;;;;;;;15.13;8.93;;;;;;;;;;4976180;28;20031;-62
2022/04/20 08:41:40;;;;;;;12.05;8.98;;;;;;;;;;4958407;28;20027;-62
2022/04/20 08:44:08;;;;;;;8.75;6.25;;;;;;;;;;4975900;28;20387;-63
2022/04/20 08:46:36;;;;;;;6.35;5.10;;;;;;;;;;4975978;28;20023;-63
2022/04/20 08:49:02;;;;;;;4.32;3.70;;;;;;;;;;4975783;28;20172;-61
2022/04/20 08:52:37;;;;;;;8.10;4.55;;;;;;;;;;4975822;28;20522;-61
2022/04/20 08:54:15;;;;;;;10.18;8.23;;;;;;;;;;4974947;28;20050;-61
2022/04/20 08:59:26;;;;;;;6.47;4.30;;;;;;;;;;4995028;28;20045;-62
2022/04/20 09:01:53;;;;;;;4.93;4.45;;;;;;;;;;4994943;28;20038;-62
2022/04/20 09:04:19;;;;;;;4.05;3.65;;;;;;;;;;4995003;28;20030;-62
2022/04/20 09:06:45;;;;;;;3.05;2.75;;;;;;;;;;4994833;28;20031;-62
2022/04/20 09:09:11;;;;;;;3.83;3.47;;;;;;;;;;4977322;28;20036;-63
2022/04/20 09:11:38;;;;;;;3.22;2.92;;;;;;;;;;4994666;28;20034;-62
2022/04/20 09:14:13;;;;;;;10.27;6.68;;;;;;;;;;4992266;28;20483;-63
2022/04/20 09:16:41;;;;;;;13.05;10.57;;;;;;;;;;4994831;28;20463;-63
2022/04/20 09:19:08;;;;;;;6.70;5.65;;;;;;;;;;4994674;28;20371;-63
2022/04/20 09:21:34;;;;;;;4.05;3.53;;;;;;;;;;4994628;28;20038;-63
2022/04/20 09:24:10;;;;;;;4.28;3.35;;;;;;;;;;4976983;28;20487;-64
2022/04/20 09:26:50;;;;;;;3.78;3.38;;;;;;;;;;4994583;28;20033;-63
2022/04/20 09:29:16;;;;;;;3.33;3.03;;;;;;;;;;4994291;28;20049;-63
2022/04/20 09:31:45;;;;;;;5.72;3.65;;;;;;;;;;4994253;28;20483;-64
2022/04/20 09:34:56;;;;;;;7.20;2.97;;;;;;;;;;4976896;28;20033;-64
2022/04/20 09:37:23;;;;;;;4.68;3.55;;;;;;;;;;4952387;29;20071;-63
2022/04/20 09:39:52;;;;;;;3.60;3.20;;;;;;;;;;4953112;29;20027;-63
2022/04/20 09:42:19;;;;;;;8.57;6.28;;;;;;;;;;4953155;29;20038;-63
2022/04/20 09:44:55;;;;;;;5.18;4.07;;;;;;;;;;4953371;29;20043;-62
2022/04/20 09:50:10;;;;;;;5.20;4.70;;;;;;;;;;4953446;29;20042;-64
2022/04/20 09:52:38;;;;;;;7.70;6.50;;;;;;;;;;4953118;29;20031;-64
2022/04/20 09:55:06;;;;;;;5.60;5.10;;;;;;;;;;4951294;29;20058;-63
2022/04/20 09:57:33;;;;;;;8.52;6.50;;;;;;;;;;4952310;29;20447;-63
2022/04/20 10:00:16;;;;;;;7.95;6.38;;;11.30;99.90;;;;;;4952813;29;20035;-64
2022/04/20 10:02:54;;;;;;;8.45;7.65;;;11.50;99.90;;;;;;4952627;29;20480;-63
2022/04/20 10:05:23;;;;;;;10.20;8.13;;;11.90;99.90;;;;;;4936178;29;20064;-62
2022/04/20 10:07:51;;;;;;;8.48;7.68;;;12.00;99.90;;;;;;4952466;29;20093;-62
2022/04/20 10:10:17;;;;;;;8.63;7.78;;;11.90;99.90;;;;;;4952418;29;20027;-62
2022/04/20 10:12:44;;;;;;;9.48;8.50;;;11.80;99.90;;;;;;4958454;28;20039;-62
2022/04/20 10:17:57;;;;;;;11.32;9.52;;;11.80;99.90;;;;;;4993735;28;20502;-62
2022/04/20 10:20:27;;;;;;;10.20;9.18;;;11.10;99.90;;;;;;4993722;28;20027;-62
2022/04/20 10:22:54;;;;;;;11.75;10.45;;;12.20;99.90;;;;;;4976269;28;20030;-62
2022/04/20 10:25:21;;;;;;;14.82;13.32;;;12.50;99.90;;;;;;4993733;28;20445;-61
2022/04/20 10:28:31;;;;;;;18.58;16.55;;;13.00;99.90;;;;;;4993703;28;20501;-64
2022/04/20 10:30:59;;;;;;;12.73;11.45;;;12.60;99.90;;;;;;4913672;29;20126;-63
2022/04/20 10:33:30;;;;;;;11.57;10.48;;;12.30;99.90;;;;;;4912163;29;20489;-65
2022/04/20 10:35:59;;;;;;;12.63;11.30;;;12.30;99.90;;;;;;4909133;29;20076;-63
2022/04/20 10:38:28;;;;;;;13.13;11.63;;;12.30;99.90;;;;;;4912851;29;20050;-63
2022/04/20 10:41:08;;;;;;;19.80;16.02;;;11.90;99.90;;;;;;4912182;29;20123;-62
2022/04/20 10:43:36;;;;;;;19.50;16.10;;;11.80;99.90;;;;;;4914024;29;20039;-64
2022/04/20 10:46:03;;;;;;;15.77;14.00;;;11.50;99.90;;;;;;4914264;29;20032;-63
2022/04/20 10:48:48;;;;;;;21.73;17.08;;;;;;;;;;4914263;29;20044;-64
2022/04/20 10:51:22;;;;;;;22.70;17.02;;;11.50;99.90;;;;;;4914177;29;20493;-63
2022/04/20 10:53:50;;;;;;;17.27;14.90;;;11.50;99.90;;;;;;4914119;29;20035;-62
2022/04/20 10:56:17;;;;;;;17.75;15.57;;;11.60;99.90;;;;;;4902485;29;20068;-65
2022/04/20 10:59:13;;;;;;;18.80;13.90;;;11.60;99.90;;;;;;4913713;29;20032;-66
2022/04/20 11:02:03;;;;;;;19.35;16.30;;;11.80;99.90;;;;;;4913668;29;20648;-65
2022/04/20 11:04:51;;;;;;;22.17;18.30;;;12.60;99.90;;;;;;4914063;29;20036;-67
2022/04/20 11:07:32;;;;;;;19.30;17.13;;;12.80;99.90;;;;;;4938710;28;20430;-67
2022/04/20 11:10:05;;;;;;;18.48;16.50;;;12.20;99.90;;;;;;4982500;28;20022;-66
2022/04/20 11:21:05;;;;;;;17.75;14.18;;;13.30;99.90;;;;;;4970632;28;20042;-65
2022/04/20 11:23:55;;;;;;;18.65;14.85;;;16.40;99.40;;;;;;4972140;28;20420;-69
2022/04/20 11:26:51;;;;;;;15.07;13.30;;;17.80;93.40;;;;;;4972525;28;20030;-65
2022/04/20 11:29:22;;;;;;;16.90;15.15;;;16.60;92.10;;;;;;4969777;28;20493;-68
2022/04/20 11:32:07;;;;;;;20.17;16.02;;;14.90;94.10;;;;;;4966458;28;20051;-65
2022/04/20 11:34:35;;;;;;;20.25;16.58;;;13.80;97.10;;;;;;4963286;28;20034;-68
2022/04/20 11:37:03;;;;;;;17.83;15.93;;;12.90;99.90;;;;;;4962358;28;20029;-67
2022/04/20 11:39:31;;;;;;;21.80;18.05;;;12.10;99.90;;;;;;4954962;28;20031;-67
2022/04/20 11:42:02;;;;;;;21.58;18.85;;;11.70;99.90;;;;;;4954326;28;20031;-66
2022/04/20 11:44:31;;;;;;;17.65;15.68;;;11.50;99.90;;;;;;4954332;29;20041;-67
2022/04/20 11:47:01;;;;;;;20.02;16.02;;;11.50;99.90;;;;;;4937207;29;20062;-67
2022/04/20 11:49:55;;;;;;;20.35;18.13;;;11.40;99.90;;;;;;4953415;29;20385;-66
2022/04/20 11:52:21;;;;;;;23.73;17.85;;;11.40;99.90;;;;;;4937217;29;20476;-65
2022/04/20 11:54:47;;;;;;;26.88;20.02;;;11.60;99.90;;;;;;4957490;29;20031;-67
2022/04/20 11:57:15;;;;;;;23.05;20.58;;;11.60;99.90;;;;;;4940473;29;20433;-65
2022/04/20 11:59:47;;;;;;;24.75;19.92;;;11.70;99.90;;;;;;4957428;29;20066;-66
2022/04/20 12:02:14;;;;;;;22.65;18.20;;;12.00;99.90;;;;;;4957694;29;20388;-66
2022/04/20 12:04:42;;;;;;;16.17;14.65;;;14.50;99.90;;;;;;4957463;29;20035;-65
2022/04/20 12:07:08;;;;;;;16.40;13.98;;;14.60;99.90;;;;;;4975696;28;20038;-67
2022/04/20 12:09:36;;;;;;;16.27;14.70;;;16.10;99.70;;;;;;4976638;28;20038;-67
2022/04/20 12:12:06;;;;;;;19.00;17.00;;;15.80;96.30;;;;;;4976613;28;20031;-67
2022/04/20 12:14:34;;;;;;;20.63;14.43;;;15.50;96.20;;;;;;4976646;28;20134;-68
2022/04/20 12:17:07;;;;;;;19.75;13.38;;;16.60;92.60;;;;;;4976354;28;20410;-67
2022/04/20 12:19:33;;;;;;;14.13;12.23;;;18.10;87.90;;;;;;4958979;28;20523;-67
2022/04/20 12:22:10;;;;;;;15.50;10.90;;;19.60;79.30;;;;;;4976656;28;20039;-68
2022/04/20 12:24:41;;;;;;;14.35;12.85;;;17.90;79.60;;;;;;4976444;28;20031;-67
2022/04/20 12:27:18;;;;;;;15.90;13.25;;;16.10;85.20;;;;;;4976377;28;20070;-68
2022/04/20 12:29:44;;;;;;;14.57;13.00;;;15.00;91.40;;;;;;4976279;28;20035;-67
2022/04/20 12:32:10;;;;;;;15.27;13.68;;;14.10;92.40;;;;;;4975812;28;20478;-68
2022/04/20 12:34:37;;;;;;;18.45;15.63;;;13.50;94.20;;;;;;4976150;28;20110;-68
2022/04/20 12:37:07;;;;;;;16.73;14.98;;;12.90;96.80;;;;;;4976223;28;20037;-66
2022/04/20 12:39:34;;;;;;;18.50;16.52;;;;;;;;;;4975607;28;20374;-66
2022/04/20 12:42:07;;;;;;;19.13;15.95;;;;;;;;;;4976161;28;20427;-66
2022/04/20 12:44:34;;;;;;;21.65;17.77;;;;;;;;;;4958647;28;20035;-65
2022/04/20 12:47:07;;;;;;;23.17;17.52;;;;;;;;;;4958738;28;20027;-66
2022/04/20 12:49:33;;;;;;;20.67;16.65;;;;;;;;;;4975753;28;20490;-65
2022/04/20 12:52:10;;;;;;;18.95;15.68;;;11.80;99.90;;;;;;4958338;28;20034;-72
2022/04/20 12:54:36;;;;;;;23.20;15.65;;;12.90;99.90;;;;;;4975496;28;20114;-65
2022/04/20 13:03:02;;;;;;;12.65;10.82;;;16.90;93.80;;;;;;4975156;28;20042;-67
2022/04/20 13:05:35;;;;;;;12.15;10.65;;;18.60;86.80;;;;;;4975069;28;20027;-67
2022/04/20 13:08:02;;;;;;;11.85;9.45;;;19.70;79.50;;;;;;4958328;28;20117;-66
2022/04/20 13:10:34;;;;;;;12.95;10.48;;;20.00;75.00;;;;;;4964957;28;20058;-67
2022/04/20 13:13:00;;;;;;;13.35;9.23;;;20.60;75.20;;;;;;4975505;28;20065;-67
2022/04/20 13:15:29;;;;;;;9.93;8.93;;;21.10;71.40;;;;;;4975286;28;20027;-66
2022/04/20 13:17:57;;;;;;;7.30;6.53;;;21.50;68.90;;;;;;4971563;28;20536;-67
2022/04/20 13:20:23;;;;;;;7.22;6.63;;;21.40;65.40;;;;;;4934490;29;20381;-67
2022/04/20 13:22:49;;;;;;;10.45;8.95;;;21.40;67.50;;;;;;4935834;29;20027;-69
2022/04/20 13:27:59;;;;;;;11.02;7.45;;;22.20;65.10;;;;;;4936174;29;20046;-70
2022/04/20 13:30:27;;;;;;;9.48;7.28;;;22.00;65.00;;;;;;4936938;29;20031;-68
2022/04/20 13:32:57;;;;;;;9.77;6.60;;;22.60;64.80;;;;;;4955745;29;20043;-65
2022/04/20 13:35:24;;;;;;;8.13;6.25;;;22.50;58.50;;;;;;4959739;28;20396;-66
2022/04/20 13:37:50;;;;;;;11.65;8.15;;;23.20;58.50;;;;;;4974973;28;20027;-70
2022/04/20 13:40:17;;;;;;;9.55;6.85;;;;;;;;;;4975043;28;20031;-73
2022/04/20 13:42:43;;;;;;;9.40;8.48;;;24.00;58.70;;;;;;4975053;28;20073;-71
2022/04/20 13:45:09;;;;;;;7.70;6.53;;;24.90;55.60;;;;;;4957452;28;20383;-70
2022/04/20 13:47:35;;;;;;;8.00;6.95;;;24.60;54.00;;;;;;4957418;28;20027;-71
2022/04/20 13:50:01;;;;;;;7.68;6.88;;;;;;;;;;4974767;28;20034;-69
2022/04/20 13:52:28;;;;;;;11.82;8.68;;;;;;;;;;4974807;28;20097;-65
2022/04/20 13:54:55;;;;;;;8.38;7.55;;;;;;;;;;4974511;28;20023;-70
2022/04/20 13:57:24;;;;;;;9.10;7.97;;;26.10;53.40;;;;;;4978430;28;20030;-68
2022/04/20 13:59:51;;;;;;;11.00;8.23;;;23.90;53.20;;;;;;4992179;28;20030;-68
2022/04/20 14:02:17;;;;;;;10.02;8.70;;;21.60;56.90;;;;;;4976007;28;20176;-69
2022/04/20 14:04:43;;;;;;;11.73;9.73;;;18.90;62.70;;;;;;4975172;28;20481;-69
2022/04/20 14:07:09;;;;;;;15.18;10.48;;;17.70;67.80;;;;;;4993265;28;20096;-68
2022/04/20 14:09:35;;;;;;;14.10;11.10;;;16.90;70.30;;;;;;4985669;28;20494;-68
2022/04/20 14:12:01;;;;;;;10.15;9.13;;;15.90;73.90;;;;;;4974623;28;20030;-69
2022/04/20 14:14:27;;;;;;;14.30;11.32;;;15.00;74.00;;;;;;4956805;28;20030;-68
2022/04/20 14:16:57;;;;;;;12.30;10.98;;;14.70;77.30;;;;;;4973379;28;20035;-70
2022/04/20 14:19:23;;;;;;;13.50;11.32;;;14.70;78.00;;;;;;4973648;28;20117;-68
2022/04/20 14:21:50;;;;;;;11.48;10.00;;;15.00;77.60;;;;;;4956251;28;20451;-69
2022/04/20 14:24:17;;;;;;;12.02;10.45;;;15.20;77.20;;;;;;4956311;28;20031;-67
2022/04/20 14:32:19;;;;;;;15.70;11.25;;;15.80;77.30;;;;;;4973859;28;20058;-67
2022/04/20 14:34:49;;;;;;;11.35;9.75;;;15.60;78.30;;;;;;4974061;28;20030;-68
2022/04/20 14:37:20;;;;;;;13.77;10.45;;;17.50;73.20;;;;;;4973809;28;20034;-69
2022/04/20 14:39:47;;;;;;;12.02;10.55;;;17.80;72.30;;;;;;4973363;28;20027;-68
2022/04/20 14:42:13;;;;;;;10.85;9.75;;;18.90;70.50;;;;;;4973447;28;20042;-69